sensor_id;sensor_type;location;lat;lon;timestamp;temperature;humidity
18741;DHT22;9499;52.472;13.448;2023-04-22T00:00:39;13.50;99.90
18741;DHT22;9499;52.472;13.448;2023-04-22T00:03:07;13.60;99.90
18741;DHT22;9499;52.472;13.448;2023-04-22T00:05:33;13.50;99.90
18741;DHT22;9499;52.472;13.448;2023-04-22T00:08:02;13.50;99.90
18741;DHT22;9499;52.472;13.448;2023-04-22T00:10:29;13.40;99.90
18741;DHT22;9499;52.472;13.448;2023-04-22T00:12:55;13.30;99.90
18741;DHT22;9499;52.472;13.448;2023-04-22T00:15:22;13.30;99.90
18741;DHT22;9499;52.472;13.448;2023-04-22T00:17:50;13.30;99.90
18741;DHT22;9499;52.472;13.448;2023-04-22T00:20:17;13.30;99.90
18741;DHT22;9499;52.472;13.448;2023-04-22T00:22:45;13.30;99.90
18741;DHT22;9499;52.472;13.448;2023-04-22T00:25:13;13.30;99.90
18741;DHT22;9499;52.472;13.448;2023-04-22T00:27:40;13.30;99.90
18741;DHT22;9499;52.472;13.448;2023-04-22T00:30:07;13.20;99.90
18741;DHT22;9499;52.472;13.448;2023-04-22T00:32:34;13.20;99.90
18741;DHT22;9499;52.472;13.448;2023-04-22T00:35:00;13.20;99.90
18741;DHT22;9499;52.472;13.448;2023-04-22T00:37:27;13.20;99.90
18741;DHT22;9499;52.472;13.448;2023-04-22T00:39:53;13.10;99.90
18741;DHT22;9499;52.472;13.448;2023-04-22T00:42:24;13.10;99.90
18741;DHT22;9499;52.472;13.448;2023-04-22T00:44:51;13.00;99.90
18741;DHT22;9499;52.472;13.448;2023-04-22T00:47:18;13.00;99.90
18741;DHT22;9499;52.472;13.448;2023-04-22T00:49:45;13.00;99.90
18741;DHT22;9499;52.472;13.448;2023-04-22T00:52:14;12.90;99.90
18741;DHT22;9499;52.472;13.448;2023-04-22T00:54:40;12.90;1.00
18741;DHT22;9499;52.472;13.448;2023-04-22T00:57:07;12.90;1.00
18741;DHT22;9499;52.472;13.448;2023-04-22T00:59:35;12.90;99.90
18741;DHT22;9499;52.472;13.448;2023-04-22T01:02:02;12.90;99.90
18741;DHT22;9499;52.472;13.448;2023-04-22T01:04:29;12.90;99.90
18741;DHT22;9499;52.472;13.448;2023-04-22T01:06:56;12.80;1.00
18741;DHT22;9499;52.472;13.448;2023-04-22T01:09:23;12.80;1.00
18741;DHT22;9499;52.472;13.448;2023-04-22T01:11:50;12.80;1.00
18741;DHT22;9499;52.472;13.448;2023-04-22T01:14:16;12.80;1.00
18741;DHT22;9499;52.472;13.448;2023-04-22T01:16:45;12.70;1.00
18741;DHT22;9499;52.472;13.448;2023-04-22T01:19:12;12.70;99.90
18741;DHT22;9499;52.472;13.448;2023-04-22T01:21:39;12.70;1.00
18741;DHT22;9499;52.472;13.448;2023-04-22T01:24:07;12.70;1.00
18741;DHT22;9499;52.472;13.448;2023-04-22T01:26:35;12.60;1.00
18741;DHT22;9499;52.472;13.448;2023-04-22T01:29:02;12.60;1.00
18741;DHT22;9499;52.472;13.448;2023-04-22T01:31:29;12.50;1.00
18741;DHT22;9499;52.472;13.448;2023-04-22T01:33:56;12.50;1.00
18741;DHT22;9499;52.472;13.448;2023-04-22T01:36:23;12.50;1.00
18741;DHT22;9499;52.472;13.448;2023-04-22T01:38:50;12.40;1.00
18741;DHT22;9499;52.472;13.448;2023-04-22T01:41:18;12.40;1.00
18741;DHT22;9499;52.472;13.448;2023-04-22T01:43:45;12.40;1.00
18741;DHT22;9499;52.472;13.448;2023-04-22T01:46:12;12.30;1.00
18741;DHT22;9499;52.472;13.448;2023-04-22T01:48:39;12.20;1.00
18741;DHT22;9499;52.472;13.448;2023-04-22T01:51:05;12.20;1.00
18741;DHT22;9499;52.472;13.448;2023-04-22T01:53:32;12.10;1.00
18741;DHT22;9499;52.472;13.448;2023-04-22T01:55:58;12.00;1.00
18741;DHT22;9499;52.472;13.448;2023-04-22T01:58:29;12.00;1.00
18741;DHT22;9499;52.472;13.448;2023-04-22T02:00:55;12.10;1.00
18741;DHT22;9499;52.472;13.448;2023-04-22T02:03:22;12.00;1.00
18741;DHT22;9499;52.472;13.448;2023-04-22T02:05:48;12.00;99.90
18741;DHT22;9499;52.472;13.448;2023-04-22T02:08:15;12.00;22.10
18741;DHT22;9499;52.472;13.448;2023-04-22T02:10:41;11.90;1.00
18741;DHT22;9499;52.472;13.448;2023-04-22T02:13:08;11.90;54.80
18741;DHT22;9499;52.472;13.448;2023-04-22T02:15:36;11.90;99.90
18741;DHT22;9499;52.472;13.448;2023-04-22T02:18:04;11.90;47.20
18741;DHT22;9499;52.472;13.448;2023-04-22T02:20:30;11.90;31.40
18741;DHT22;9499;52.472;13.448;2023-04-22T02:22:57;11.90;98.70
18741;DHT22;9499;52.472;13.448;2023-04-22T02:25:24;11.90;45.80
18741;DHT22;9499;52.472;13.448;2023-04-22T02:27:51;11.90;36.00
18741;DHT22;9499;52.472;13.448;2023-04-22T02:30:17;11.90;99.90
18741;DHT22;9499;52.472;13.448;2023-04-22T02:32:45;11.80;99.90
18741;DHT22;9499;52.472;13.448;2023-04-22T02:35:12;11.80;99.90
18741;DHT22;9499;52.472;13.448;2023-04-22T02:37:38;11.80;99.90
18741;DHT22;9499;52.472;13.448;2023-04-22T02:40:05;11.70;99.90
18741;DHT22;9499;52.472;13.448;2023-04-22T02:42:33;11.70;99.90
18741;DHT22;9499;52.472;13.448;2023-04-22T02:44:59;11.70;99.90
18741;DHT22;9499;52.472;13.448;2023-04-22T02:47:26;11.60;99.90
18741;DHT22;9499;52.472;13.448;2023-04-22T02:49:54;11.60;99.90
18741;DHT22;9499;52.472;13.448;2023-04-22T02:52:20;11.50;99.90
18741;DHT22;9499;52.472;13.448;2023-04-22T02:54:47;11.50;1.00
18741;DHT22;9499;52.472;13.448;2023-04-22T02:57:13;11.50;1.00
18741;DHT22;9499;52.472;13.448;2023-04-22T02:59:40;11.50;1.00
18741;DHT22;9499;52.472;13.448;2023-04-22T03:02:06;11.50;1.00
18741;DHT22;9499;52.472;13.448;2023-04-22T03:04:34;11.50;1.00
18741;DHT22;9499;52.472;13.448;2023-04-22T03:07:02;11.50;99.90
18741;DHT22;9499;52.472;13.448;2023-04-22T03:09:28;11.40;1.00
18741;DHT22;9499;52.472;13.448;2023-04-22T03:11:55;11.40;1.00
18741;DHT22;9499;52.472;13.448;2023-04-22T03:14:21;11.30;1.00
18741;DHT22;9499;52.472;13.448;2023-04-22T03:16:48;11.30;1.00
18741;DHT22;9499;52.472;13.448;2023-04-22T03:19:14;11.30;1.00
18741;DHT22;9499;52.472;13.448;2023-04-22T03:21:41;11.40;1.00
18741;DHT22;9499;52.472;13.448;2023-04-22T03:24:09;11.30;99.90
18741;DHT22;9499;52.472;13.448;2023-04-22T03:26:35;11.30;1.00
18741;DHT22;9499;52.472;13.448;2023-04-22T03:29:02;11.20;1.00
18741;DHT22;9499;52.472;13.448;2023-04-22T03:31:29;11.20;1.00
18741;DHT22;9499;52.472;13.448;2023-04-22T03:33:55;11.20;1.00
18741;DHT22;9499;52.472;13.448;2023-04-22T03:36:22;11.20;1.00
18741;DHT22;9499;52.472;13.448;2023-04-22T03:38:48;11.10;1.00
18741;DHT22;9499;52.472;13.448;2023-04-22T03:41:17;11.10;1.00
18741;DHT22;9499;52.472;13.448;2023-04-22T03:43:43;11.10;1.00
18741;DHT22;9499;52.472;13.448;2023-04-22T03:46:10;11.10;1.00
18741;DHT22;9499;52.472;13.448;2023-04-22T03:48:36;11.10;1.00
18741;DHT22;9499;52.472;13.448;2023-04-22T03:51:03;11.00;1.00
18741;DHT22;9499;52.472;13.448;2023-04-22T03:53:29;11.00;1.00
18741;DHT22;9499;52.472;13.448;2023-04-22T03:55:56;11.00;1.00
18741;DHT22;9499;52.472;13.448;2023-04-22T03:58:23;11.00;1.00
18741;DHT22;9499;52.472;13.448;2023-04-22T04:00:50;11.00;1.00
18741;DHT22;9499;52.472;13.448;2023-04-22T04:03:16;11.00;1.00
18741;DHT22;9499;52.472;13.448;2023-04-22T04:05:43;10.90;1.00
18741;DHT22;9499;52.472;13.448;2023-04-22T04:08:09;10.90;1.00
18741;DHT22;9499;52.472;13.448;2023-04-22T04:10:36;10.80;1.00
18741;DHT22;9499;52.472;13.448;2023-04-22T04:13:03;10.80;99.90
18741;DHT22;9499;52.472;13.448;2023-04-22T04:15:31;10.80;28.10
18741;DHT22;9499;52.472;13.448;2023-04-22T04:17:58;10.80;99.90
18741;DHT22;9499;52.472;13.448;2023-04-22T04:20:25;10.80;99.90
18741;DHT22;9499;52.472;13.448;2023-04-22T04:22:52;10.70;99.90
18741;DHT22;9499;52.472;13.448;2023-04-22T04:25:18;10.70;99.90
18741;DHT22;9499;52.472;13.448;2023-04-22T04:27:45;10.80;99.90
18741;DHT22;9499;52.472;13.448;2023-04-22T04:30:12;10.80;99.90
18741;DHT22;9499;52.472;13.448;2023-04-22T04:32:40;10.80;99.90
18741;DHT22;9499;52.472;13.448;2023-04-22T04:35:07;10.80;99.90
18741;DHT22;9499;52.472;13.448;2023-04-22T04:37:37;10.80;99.90
18741;DHT22;9499;52.472;13.448;2023-04-22T04:40:06;10.80;99.90
18741;DHT22;9499;52.472;13.448;2023-04-22T04:42:32;10.70;99.90
18741;DHT22;9499;52.472;13.448;2023-04-22T04:44:59;10.70;99.90
18741;DHT22;9499;52.472;13.448;2023-04-22T04:47:26;10.70;1.00
18741;DHT22;9499;52.472;13.448;2023-04-22T04:49:53;10.70;99.90
18741;DHT22;9499;52.472;13.448;2023-04-22T04:52:22;10.70;1.00
18741;DHT22;9499;52.472;13.448;2023-04-22T04:54:49;10.70;1.00
18741;DHT22;9499;52.472;13.448;2023-04-22T04:57:15;10.70;99.90
18741;DHT22;9499;52.472;13.448;2023-04-22T04:59:42;10.70;1.00
18741;DHT22;9499;52.472;13.448;2023-04-22T05:02:08;10.70;1.00
18741;DHT22;9499;52.472;13.448;2023-04-22T05:04:35;10.70;1.00
18741;DHT22;9499;52.472;13.448;2023-04-22T05:07:03;10.70;1.00
18741;DHT22;9499;52.472;13.448;2023-04-22T05:11:57;10.70;1.00
18741;DHT22;9499;52.472;13.448;2023-04-22T05:14:24;10.70;1.00
18741;DHT22;9499;52.472;13.448;2023-04-22T05:16:50;10.70;1.00
18741;DHT22;9499;52.472;13.448;2023-04-22T05:19:17;10.70;1.00
18741;DHT22;9499;52.472;13.448;2023-04-22T05:21:43;10.70;1.00
18741;DHT22;9499;52.472;13.448;2023-04-22T05:24:11;10.70;1.00
18741;DHT22;9499;52.472;13.448;2023-04-22T05:26:38;10.80;1.00
18741;DHT22;9499;52.472;13.448;2023-04-22T05:29:04;10.70;1.00
18741;DHT22;9499;52.472;13.448;2023-04-22T05:31:32;10.70;1.00
18741;DHT22;9499;52.472;13.448;2023-04-22T05:33:58;10.80;1.00
18741;DHT22;9499;52.472;13.448;2023-04-22T05:36:25;10.80;1.00
18741;DHT22;9499;52.472;13.448;2023-04-22T05:38:52;10.80;1.00
18741;DHT22;9499;52.472;13.448;2023-04-22T05:41:20;10.90;1.00
18741;DHT22;9499;52.472;13.448;2023-04-22T05:43:46;10.90;99.90
18741;DHT22;9499;52.472;13.448;2023-04-22T05:46:13;11.00;99.90
18741;DHT22;9499;52.472;13.448;2023-04-22T05:48:39;11.00;1.00
18741;DHT22;9499;52.472;13.448;2023-04-22T05:51:06;11.10;99.90
18741;DHT22;9499;52.472;13.448;2023-04-22T05:53:32;11.10;99.90
18741;DHT22;9499;52.472;13.448;2023-04-22T05:55:59;11.10;99.90
18741;DHT22;9499;52.472;13.448;2023-04-22T05:58:27;11.20;99.90
18741;DHT22;9499;52.472;13.448;2023-04-22T06:00:53;11.30;99.90
18741;DHT22;9499;52.472;13.448;2023-04-22T06:03:20;11.40;99.90
18741;DHT22;9499;52.472;13.448;2023-04-22T06:05:46;11.40;99.90
18741;DHT22;9499;52.472;13.448;2023-04-22T06:08:13;11.50;1.00
18741;DHT22;9499;52.472;13.448;2023-04-22T06:10:40;11.60;1.00
18741;DHT22;9499;52.472;13.448;2023-04-22T06:13:06;11.60;1.00
18741;DHT22;9499;52.472;13.448;2023-04-22T06:15:35;11.70;1.00
18741;DHT22;9499;52.472;13.448;2023-04-22T06:18:01;11.80;1.00
18741;DHT22;9499;52.472;13.448;2023-04-22T06:20:28;11.80;1.00
18741;DHT22;9499;52.472;13.448;2023-04-22T06:22:56;11.90;1.00
18741;DHT22;9499;52.472;13.448;2023-04-22T06:25:23;12.00;1.00
18741;DHT22;9499;52.472;13.448;2023-04-22T06:27:50;12.00;99.90
18741;DHT22;9499;52.472;13.448;2023-04-22T06:30:16;12.10;99.90
18741;DHT22;9499;52.472;13.448;2023-04-22T06:32:44;12.10;99.90
18741;DHT22;9499;52.472;13.448;2023-04-22T06:35:10;12.30;99.90
18741;DHT22;9499;52.472;13.448;2023-04-22T06:37:37;12.40;99.90
18741;DHT22;9499;52.472;13.448;2023-04-22T06:40:04;12.40;59.80
18741;DHT22;9499;52.472;13.448;2023-04-22T06:42:31;12.50;9.60
18741;DHT22;9499;52.472;13.448;2023-04-22T06:44:57;12.50;42.60
18741;DHT22;9499;52.472;13.448;2023-04-22T06:47:24;12.60;1.00
18741;DHT22;9499;52.472;13.448;2023-04-22T06:49:52;12.60;10.30
18741;DHT22;9499;52.472;13.448;2023-04-22T06:52:18;12.70;20.60
18741;DHT22;9499;52.472;13.448;2023-04-22T06:54:46;12.80;1.00
18741;DHT22;9499;52.472;13.448;2023-04-22T06:57:12;12.90;1.00
18741;DHT22;9499;52.472;13.448;2023-04-22T06:59:39;13.00;1.00
18741;DHT22;9499;52.472;13.448;2023-04-22T07:02:06;13.10;1.00
18741;DHT22;9499;52.472;13.448;2023-04-22T07:04:32;13.20;1.00
18741;DHT22;9499;52.472;13.448;2023-04-22T07:07:00;13.30;1.00
18741;DHT22;9499;52.472;13.448;2023-04-22T07:09:27;13.30;1.00
18741;DHT22;9499;52.472;13.448;2023-04-22T07:11:53;13.50;1.00
18741;DHT22;9499;52.472;13.448;2023-04-22T07:14:23;13.50;1.00
18741;DHT22;9499;52.472;13.448;2023-04-22T07:16:50;13.70;1.00
18741;DHT22;9499;52.472;13.448;2023-04-22T07:19:16;13.70;1.00
18741;DHT22;9499;52.472;13.448;2023-04-22T07:21:43;13.80;1.00
18741;DHT22;9499;52.472;13.448;2023-04-22T07:24:11;13.90;1.00
18741;DHT22;9499;52.472;13.448;2023-04-22T07:26:38;14.00;1.00
18741;DHT22;9499;52.472;13.448;2023-04-22T07:29:05;14.10;99.90
18741;DHT22;9499;52.472;13.448;2023-04-22T07:31:32;14.20;99.90
18741;DHT22;9499;52.472;13.448;2023-04-22T07:33:58;14.20;99.90
18741;DHT22;9499;52.472;13.448;2023-04-22T07:36:25;14.30;99.90
18741;DHT22;9499;52.472;13.448;2023-04-22T07:38:51;14.50;99.90
18741;DHT22;9499;52.472;13.448;2023-04-22T07:41:19;14.60;99.90
18741;DHT22;9499;52.472;13.448;2023-04-22T07:43:46;14.60;99.90
18741;DHT22;9499;52.472;13.448;2023-04-22T07:46:12;14.70;99.90
18741;DHT22;9499;52.472;13.448;2023-04-22T07:48:39;14.80;99.90
18741;DHT22;9499;52.472;13.448;2023-04-22T07:51:05;14.90;99.90
18741;DHT22;9499;52.472;13.448;2023-04-22T07:53:32;14.90;99.90
18741;DHT22;9499;52.472;13.448;2023-04-22T07:56:00;15.00;99.90
18741;DHT22;9499;52.472;13.448;2023-04-22T07:58:28;15.10;99.90
18741;DHT22;9499;52.472;13.448;2023-04-22T08:00:54;15.20;99.90
18741;DHT22;9499;52.472;13.448;2023-04-22T08:03:22;15.30;99.90
18741;DHT22;9499;52.472;13.448;2023-04-22T08:05:48;15.30;99.90
18741;DHT22;9499;52.472;13.448;2023-04-22T08:08:15;15.40;99.90
18741;DHT22;9499;52.472;13.448;2023-04-22T08:10:41;15.50;99.90
18741;DHT22;9499;52.472;13.448;2023-04-22T08:13:08;15.60;99.90
18741;DHT22;9499;52.472;13.448;2023-04-22T08:15:36;15.70;99.90
18741;DHT22;9499;52.472;13.448;2023-04-22T08:18:03;15.90;18.70
18741;DHT22;9499;52.472;13.448;2023-04-22T08:20:30;16.00;6.40
18741;DHT22;9499;52.472;13.448;2023-04-22T08:22:56;16.00;2.70
18741;DHT22;9499;52.472;13.448;2023-04-22T08:25:24;16.20;1.00
18741;DHT22;9499;52.472;13.448;2023-04-22T08:27:51;16.20;1.00
18741;DHT22;9499;52.472;13.448;2023-04-22T08:30:18;16.40;1.00
18741;DHT22;9499;52.472;13.448;2023-04-22T08:32:46;16.40;1.00
18741;DHT22;9499;52.472;13.448;2023-04-22T08:35:12;16.50;1.00
18741;DHT22;9499;52.472;13.448;2023-04-22T08:37:39;16.60;1.00
18741;DHT22;9499;52.472;13.448;2023-04-22T08:40:07;16.80;1.00
18741;DHT22;9499;52.472;13.448;2023-04-22T08:42:33;16.90;1.00
18741;DHT22;9499;52.472;13.448;2023-04-22T08:45:01;16.90;1.00
18741;DHT22;9499;52.472;13.448;2023-04-22T08:47:28;17.10;1.00
18741;DHT22;9499;52.472;13.448;2023-04-22T08:50:01;17.10;1.00
18741;DHT22;9499;52.472;13.448;2023-04-22T08:52:29;17.20;1.00
18741;DHT22;9499;52.472;13.448;2023-04-22T08:54:55;17.30;1.00
18741;DHT22;9499;52.472;13.448;2023-04-22T08:57:22;17.30;1.00
18741;DHT22;9499;52.472;13.448;2023-04-22T08:59:50;17.30;1.00
18741;DHT22;9499;52.472;13.448;2023-04-22T09:02:19;17.40;1.00
18741;DHT22;9499;52.472;13.448;2023-04-22T09:04:47;17.50;1.00
18741;DHT22;9499;52.472;13.448;2023-04-22T09:07:19;17.50;1.00
18741;DHT22;9499;52.472;13.448;2023-04-22T09:09:47;17.60;1.00
18741;DHT22;9499;52.472;13.448;2023-04-22T09:12:14;17.70;1.00
18741;DHT22;9499;52.472;13.448;2023-04-22T09:14:42;17.80;1.00
18741;DHT22;9499;52.472;13.448;2023-04-22T09:17:09;17.80;1.00
18741;DHT22;9499;52.472;13.448;2023-04-22T09:19:35;17.90;1.00
18741;DHT22;9499;52.472;13.448;2023-04-22T09:22:02;18.00;1.00
18741;DHT22;9499;52.472;13.448;2023-04-22T09:24:30;18.10;1.00
18741;DHT22;9499;52.472;13.448;2023-04-22T09:27:00;18.10;1.00
18741;DHT22;9499;52.472;13.448;2023-04-22T09:29:28;18.20;1.00
18741;DHT22;9499;52.472;13.448;2023-04-22T09:31:55;18.20;1.00
18741;DHT22;9499;52.472;13.448;2023-04-22T09:34:22;18.30;1.00
18741;DHT22;9499;52.472;13.448;2023-04-22T09:36:50;18.50;1.00
18741;DHT22;9499;52.472;13.448;2023-04-22T09:39:16;18.60;1.00
18741;DHT22;9499;52.472;13.448;2023-04-22T09:41:44;18.70;1.00
18741;DHT22;9499;52.472;13.448;2023-04-22T09:44:19;18.70;1.00
18741;DHT22;9499;52.472;13.448;2023-04-22T09:46:51;18.70;1.00
18741;DHT22;9499;52.472;13.448;2023-04-22T09:49:19;18.80;1.00
18741;DHT22;9499;52.472;13.448;2023-04-22T09:51:46;18.80;1.00
18741;DHT22;9499;52.472;13.448;2023-04-22T09:54:12;18.90;1.00
18741;DHT22;9499;52.472;13.448;2023-04-22T09:56:48;18.90;1.00
18741;DHT22;9499;52.472;13.448;2023-04-22T09:59:19;19.10;1.00
18741;DHT22;9499;52.472;13.448;2023-04-22T10:01:46;19.50;1.00
18741;DHT22;9499;52.472;13.448;2023-04-22T10:04:13;19.80;1.00
18741;DHT22;9499;52.472;13.448;2023-04-22T10:06:42;20.10;1.00
18741;DHT22;9499;52.472;13.448;2023-04-22T10:09:09;20.40;1.00
18741;DHT22;9499;52.472;13.448;2023-04-22T10:11:36;20.60;1.00
18741;DHT22;9499;52.472;13.448;2023-04-22T10:14:06;20.80;1.00
18741;DHT22;9499;52.472;13.448;2023-04-22T10:16:35;21.00;1.00
18741;DHT22;9499;52.472;13.448;2023-04-22T10:19:04;21.00;99.90
18741;DHT22;9499;52.472;13.448;2023-04-22T10:21:31;21.20;99.90
18741;DHT22;9499;52.472;13.448;2023-04-22T10:23:59;21.40;99.90
18741;DHT22;9499;52.472;13.448;2023-04-22T10:26:41;21.60;99.90
18741;DHT22;9499;52.472;13.448;2023-04-22T10:29:12;21.70;99.90
18741;DHT22;9499;52.472;13.448;2023-04-22T10:31:42;21.80;99.90
18741;DHT22;9499;52.472;13.448;2023-04-22T10:34:10;21.90;99.90
18741;DHT22;9499;52.472;13.448;2023-04-22T10:36:52;21.90;99.90
18741;DHT22;9499;52.472;13.448;2023-04-22T10:39:19;22.10;99.90
18741;DHT22;9499;52.472;13.448;2023-04-22T10:41:51;22.20;99.90
18741;DHT22;9499;52.472;13.448;2023-04-22T10:44:20;22.00;99.90
18741;DHT22;9499;52.472;13.448;2023-04-22T10:46:59;22.10;99.90
18741;DHT22;9499;52.472;13.448;2023-04-22T10:49:29;22.40;99.90
18741;DHT22;9499;52.472;13.448;2023-04-22T10:51:57;22.40;99.90
18741;DHT22;9499;52.472;13.448;2023-04-22T10:54:59;22.50;99.90
18741;DHT22;9499;52.472;13.448;2023-04-22T10:57:31;22.60;99.90
18741;DHT22;9499;52.472;13.448;2023-04-22T11:00:19;22.50;99.90
18741;DHT22;9499;52.472;13.448;2023-04-22T11:02:51;22.60;99.90
18741;DHT22;9499;52.472;13.448;2023-04-22T11:05:20;22.70;99.90
18741;DHT22;9499;52.472;13.448;2023-04-22T11:07:48;22.80;99.90
18741;DHT22;9499;52.472;13.448;2023-04-22T11:10:30;22.80;99.90
18741;DHT22;9499;52.472;13.448;2023-04-22T11:12:57;22.90;99.90
18741;DHT22;9499;52.472;13.448;2023-04-22T11:15:28;23.00;99.90
18741;DHT22;9499;52.472;13.448;2023-04-22T11:17:55;23.20;99.90
18741;DHT22;9499;52.472;13.448;2023-04-22T11:20:23;23.40;99.90
18741;DHT22;9499;52.472;13.448;2023-04-22T11:22:51;23.50;99.90
18741;DHT22;9499;52.472;13.448;2023-04-22T11:25:18;23.20;99.90
18741;DHT22;9499;52.472;13.448;2023-04-22T11:27:45;23.20;99.90
18741;DHT22;9499;52.472;13.448;2023-04-22T11:30:13;23.40;99.90
18741;DHT22;9499;52.472;13.448;2023-04-22T11:32:43;23.50;99.90
18741;DHT22;9499;52.472;13.448;2023-04-22T11:35:11;23.80;99.90
18741;DHT22;9499;52.472;13.448;2023-04-22T11:37:39;24.10;99.90
18741;DHT22;9499;52.472;13.448;2023-04-22T11:40:07;24.20;99.90
18741;DHT22;9499;52.472;13.448;2023-04-22T11:42:34;24.30;99.90
18741;DHT22;9499;52.472;13.448;2023-04-22T11:45:01;24.30;99.90
18741;DHT22;9499;52.472;13.448;2023-04-22T11:47:28;24.20;99.90
18741;DHT22;9499;52.472;13.448;2023-04-22T11:49:58;24.20;99.90
18741;DHT22;9499;52.472;13.448;2023-04-22T11:52:43;24.30;99.90
18741;DHT22;9499;52.472;13.448;2023-04-22T11:55:10;24.40;99.90
18741;DHT22;9499;52.472;13.448;2023-04-22T11:57:37;24.40;99.90
18741;DHT22;9499;52.472;13.448;2023-04-22T12:00:04;24.50;99.90
18741;DHT22;9499;52.472;13.448;2023-04-22T12:02:31;24.40;99.90
18741;DHT22;9499;52.472;13.448;2023-04-22T12:05:01;24.50;99.90
18741;DHT22;9499;52.472;13.448;2023-04-22T12:07:28;24.70;99.90
18741;DHT22;9499;52.472;13.448;2023-04-22T12:09:55;24.80;99.90
18741;DHT22;9499;52.472;13.448;2023-04-22T12:12:23;24.80;99.90
18741;DHT22;9499;52.472;13.448;2023-04-22T12:14:50;25.00;99.90
18741;DHT22;9499;52.472;13.448;2023-04-22T12:17:21;24.90;99.90
18741;DHT22;9499;52.472;13.448;2023-04-22T12:19:52;24.70;99.90
18741;DHT22;9499;52.472;13.448;2023-04-22T12:22:24;24.60;99.90
18741;DHT22;9499;52.472;13.448;2023-04-22T12:24:51;24.80;99.90
18741;DHT22;9499;52.472;13.448;2023-04-22T12:27:18;24.90;99.90
18741;DHT22;9499;52.472;13.448;2023-04-22T12:29:50;24.90;99.90
18741;DHT22;9499;52.472;13.448;2023-04-22T12:32:19;24.90;99.90
18741;DHT22;9499;52.472;13.448;2023-04-22T12:34:46;24.80;99.90
18741;DHT22;9499;52.472;13.448;2023-04-22T12:37:12;24.80;99.90
18741;DHT22;9499;52.472;13.448;2023-04-22T12:39:40;25.00;99.90
18741;DHT22;9499;52.472;13.448;2023-04-22T12:42:07;25.20;99.90
18741;DHT22;9499;52.472;13.448;2023-04-22T12:44:33;25.30;99.90
18741;DHT22;9499;52.472;13.448;2023-04-22T12:47:00;25.50;99.90
18741;DHT22;9499;52.472;13.448;2023-04-22T12:49:27;25.50;99.90
18741;DHT22;9499;52.472;13.448;2023-04-22T12:51:54;25.40;99.90
18741;DHT22;9499;52.472;13.448;2023-04-22T12:54:20;25.20;99.90
18741;DHT22;9499;52.472;13.448;2023-04-22T12:56:48;24.90;99.90
18741;DHT22;9499;52.472;13.448;2023-04-22T12:59:15;25.10;99.90
18741;DHT22;9499;52.472;13.448;2023-04-22T13:01:41;25.10;99.90
18741;DHT22;9499;52.472;13.448;2023-04-22T13:04:08;25.10;99.90
18741;DHT22;9499;52.472;13.448;2023-04-22T13:06:35;25.20;99.90
18741;DHT22;9499;52.472;13.448;2023-04-22T13:09:01;25.10;99.90
18741;DHT22;9499;52.472;13.448;2023-04-22T13:11:28;25.20;99.90
18741;DHT22;9499;52.472;13.448;2023-04-22T13:13:56;25.20;99.90
18741;DHT22;9499;52.472;13.448;2023-04-22T13:16:22;25.20;99.90
18741;DHT22;9499;52.472;13.448;2023-04-22T13:18:49;25.30;99.90
18741;DHT22;9499;52.472;13.448;2023-04-22T13:21:15;25.40;99.90
18741;DHT22;9499;52.472;13.448;2023-04-22T13:23:42;25.50;99.90
18741;DHT22;9499;52.472;13.448;2023-04-22T13:26:09;25.60;99.90
18741;DHT22;9499;52.472;13.448;2023-04-22T13:28:36;25.70;99.90
18741;DHT22;9499;52.472;13.448;2023-04-22T13:31:04;25.70;99.90
18741;DHT22;9499;52.472;13.448;2023-04-22T13:33:31;25.50;99.90
18741;DHT22;9499;52.472;13.448;2023-04-22T13:35:57;25.40;99.90
18741;DHT22;9499;52.472;13.448;2023-04-22T13:38:24;25.60;99.90
18741;DHT22;9499;52.472;13.448;2023-04-22T13:40:50;25.60;99.90
18741;DHT22;9499;52.472;13.448;2023-04-22T13:43:17;25.70;99.90
18741;DHT22;9499;52.472;13.448;2023-04-22T13:45:43;25.90;99.90
18741;DHT22;9499;52.472;13.448;2023-04-22T13:48:13;26.10;99.90
18741;DHT22;9499;52.472;13.448;2023-04-22T13:50:40;26.10;99.90
18741;DHT22;9499;52.472;13.448;2023-04-22T13:53:07;26.20;99.90
18741;DHT22;9499;52.472;13.448;2023-04-22T13:55:34;26.30;99.90
18741;DHT22;9499;52.472;13.448;2023-04-22T13:58:01;26.00;99.90
18741;DHT22;9499;52.472;13.448;2023-04-22T14:00:30;25.70;99.90
18741;DHT22;9499;52.472;13.448;2023-04-22T14:02:56;25.70;99.90
18741;DHT22;9499;52.472;13.448;2023-04-22T14:05:24;25.90;99.90
18741;DHT22;9499;52.472;13.448;2023-04-22T14:07:51;26.00;99.90
18741;DHT22;9499;52.472;13.448;2023-04-22T14:10:18;26.10;99.90
18741;DHT22;9499;52.472;13.448;2023-04-22T14:12:47;26.10;99.90
18741;DHT22;9499;52.472;13.448;2023-04-22T14:15:13;26.30;99.90
18741;DHT22;9499;52.472;13.448;2023-04-22T14:17:40;26.20;99.90
18741;DHT22;9499;52.472;13.448;2023-04-22T14:20:08;26.30;99.90
18741;DHT22;9499;52.472;13.448;2023-04-22T14:22:36;26.30;99.90
18741;DHT22;9499;52.472;13.448;2023-04-22T14:25:03;26.40;99.90
18741;DHT22;9499;52.472;13.448;2023-04-22T14:27:30;26.40;99.90
18741;DHT22;9499;52.472;13.448;2023-04-22T14:29:57;26.40;99.90
18741;DHT22;9499;52.472;13.448;2023-04-22T14:32:23;26.50;99.90
18741;DHT22;9499;52.472;13.448;2023-04-22T14:34:50;26.60;99.90
18741;DHT22;9499;52.472;13.448;2023-04-22T14:37:17;26.60;99.90
18741;DHT22;9499;52.472;13.448;2023-04-22T14:39:45;26.50;99.90
18741;DHT22;9499;52.472;13.448;2023-04-22T14:42:11;26.60;99.90
18741;DHT22;9499;52.472;13.448;2023-04-22T14:44:39;26.60;99.90
18741;DHT22;9499;52.472;13.448;2023-04-22T14:47:06;26.60;99.90
18741;DHT22;9499;52.472;13.448;2023-04-22T14:49:33;26.70;99.90
18741;DHT22;9499;52.472;13.448;2023-04-22T14:52:00;26.80;99.90
18741;DHT22;9499;52.472;13.448;2023-04-22T14:54:27;26.80;99.90
18741;DHT22;9499;52.472;13.448;2023-04-22T14:56:54;26.70;99.90
18741;DHT22;9499;52.472;13.448;2023-04-22T14:59:23;26.70;99.90
18741;DHT22;9499;52.472;13.448;2023-04-22T15:01:49;26.90;99.90
18741;DHT22;9499;52.472;13.448;2023-04-22T15:04:16;27.00;99.90
18741;DHT22;9499;52.472;13.448;2023-04-22T15:06:43;26.90;99.90
18741;DHT22;9499;52.472;13.448;2023-04-22T15:09:10;27.00;99.90
18741;DHT22;9499;52.472;13.448;2023-04-22T15:11:36;27.30;99.90
18741;DHT22;9499;52.472;13.448;2023-04-22T15:14:04;27.60;99.90
18741;DHT22;9499;52.472;13.448;2023-04-22T15:16:31;27.70;99.90
18741;DHT22;9499;52.472;13.448;2023-04-22T15:18:57;27.70;99.90
18741;DHT22;9499;52.472;13.448;2023-04-22T15:21:24;27.80;99.90
18741;DHT22;9499;52.472;13.448;2023-04-22T15:23:50;27.70;99.90
18741;DHT22;9499;52.472;13.448;2023-04-22T15:26:17;27.60;99.90
18741;DHT22;9499;52.472;13.448;2023-04-22T15:28:44;27.70;99.90
18741;DHT22;9499;52.472;13.448;2023-04-22T15:31:12;27.70;99.90
18741;DHT22;9499;52.472;13.448;2023-04-22T15:33:38;27.80;99.90
18741;DHT22;9499;52.472;13.448;2023-04-22T15:36:05;27.80;99.90
18741;DHT22;9499;52.472;13.448;2023-04-22T15:38:34;27.80;99.90
18741;DHT22;9499;52.472;13.448;2023-04-22T15:41:02;27.70;99.90